createdAt,value
2017-11-07T00:00:34.477Z,6.10
2017-11-07T00:03:02.469Z,6.06
2017-11-07T00:05:30.489Z,6.15
2017-11-07T00:07:58.401Z,6.06
2017-11-07T00:10:26.402Z,5.95
2017-11-07T00:12:54.341Z,5.90
2017-11-07T00:15:22.281Z,5.86
2017-11-07T00:17:50.324Z,5.75
2017-11-07T00:20:18.254Z,5.71
2017-11-07T00:22:46.157Z,5.76
2017-11-07T00:25:14.465Z,5.66
2017-11-07T00:27:42.410Z,5.63
2017-11-07T00:30:10.332Z,5.74
2017-11-07T00:32:38.237Z,5.78
2017-11-07T00:35:06.558Z,5.72
2017-11-07T00:37:34.520Z,5.70
2017-11-07T00:40:02.476Z,5.61
2017-11-07T00:42:30.416Z,5.61
2017-11-07T00:44:58.337Z,5.57
2017-11-07T00:47:26.246Z,5.55
2017-11-07T00:49:54.544Z,5.48
2017-11-07T00:52:22.478Z,5.58
2017-11-07T00:54:50.377Z,5.54
2017-11-07T00:57:18.310Z,5.48
2017-11-07T00:59:46.212Z,5.48
2017-11-07T01:02:14.140Z,5.60
2017-11-07T01:04:42.053Z,5.51
2017-11-07T01:07:10.078Z,5.47
2017-11-07T01:09:37.989Z,5.55
2017-11-07T01:12:05.910Z,5.63
2017-11-07T01:14:33.812Z,5.68
2017-11-07T01:17:02.124Z,5.70
2017-11-07T01:19:30.130Z,5.62
2017-11-07T01:21:58.099Z,5.56
2017-11-07T01:24:26.012Z,5.45
2017-11-07T01:26:53.993Z,5.39
2017-11-07T01:29:22.000Z,5.45
2017-11-07T01:31:49.904Z,5.45
2017-11-07T01:34:17.827Z,5.39
2017-11-07T01:36:45.756Z,5.50
2017-11-07T01:39:13.689Z,5.51
2017-11-07T01:41:41.605Z,5.56
2017-11-07T01:44:09.534Z,5.57
2017-11-07T01:46:37.840Z,5.64
2017-11-07T01:49:05.771Z,5.65
2017-11-07T01:51:34.083Z,5.65
2017-11-07T01:54:02.008Z,5.72
2017-11-07T01:56:29.919Z,5.71
2017-11-07T01:58:57.822Z,5.76
2017-11-07T02:01:25.729Z,5.76
2017-11-07T02:03:54.023Z,5.83
2017-11-07T02:06:21.940Z,5.70
2017-11-07T02:08:49.858Z,5.59
2017-11-07T02:11:17.775Z,5.59
2017-11-07T02:13:45.678Z,5.54
2017-11-07T02:16:13.973Z,5.49
2017-11-07T02:18:41.898Z,5.49
2017-11-07T02:21:09.809Z,5.54
2017-11-07T02:23:37.724Z,5.41
2017-11-07T02:26:05.640Z,5.39
2017-11-07T02:28:33.575Z,5.37
2017-11-07T02:31:01.541Z,5.30
2017-11-07T02:33:29.447Z,5.38
2017-11-07T02:35:57.381Z,5.41
2017-11-07T02:38:25.297Z,5.43
2017-11-07T02:40:53.216Z,5.32
2017-11-07T02:43:21.186Z,5.37
2017-11-07T02:45:49.097Z,5.38
2017-11-07T02:48:17.016Z,5.39
2017-11-07T02:50:44.928Z,5.40
2017-11-07T02:53:12.856Z,5.46
2017-11-07T02:55:40.826Z,5.45
2017-11-07T02:58:08.732Z,5.56
2017-11-07T03:00:36.669Z,5.50
2017-11-07T03:03:04.572Z,5.49
2017-11-07T03:05:32.502Z,5.48
2017-11-07T03:08:00.411Z,5.50
2017-11-07T03:10:28.442Z,5.57
2017-11-07T03:12:56.464Z,5.37
2017-11-07T03:15:24.384Z,5.45
2017-11-07T03:17:52.758Z,5.46
2017-11-07T03:20:20.663Z,5.45
2017-11-07T03:22:48.567Z,5.44
2017-11-07T03:25:16.487Z,5.50
2017-11-07T03:27:44.400Z,5.51
2017-11-07T03:30:12.391Z,5.55
2017-11-07T03:32:40.349Z,5.51
2017-11-07T03:35:08.334Z,5.56
2017-11-07T03:37:36.292Z,5.55
2017-11-07T03:40:04.269Z,5.61
2017-11-07T03:42:32.217Z,5.63
2017-11-07T03:45:00.154Z,5.66
2017-11-07T03:47:28.082Z,5.59
2017-11-07T03:49:55.984Z,5.48
2017-11-07T03:52:24.000Z,5.37
2017-11-07T03:54:51.908Z,5.29
2017-11-07T03:57:19.855Z,5.28
2017-11-07T03:59:47.759Z,5.22
2017-11-07T04:02:15.800Z,5.13
2017-11-07T04:04:44.161Z,5.01
2017-11-07T04:07:12.077Z,4.94
2017-11-07T04:09:39.995Z,5.09
2017-11-07T04:12:07.900Z,4.98
2017-11-07T04:14:35.820Z,4.89
2017-11-07T04:17:03.796Z,4.97
2017-11-07T04:19:31.688Z,5.01
2017-11-07T04:21:59.618Z,4.93
2017-11-07T04:24:27.537Z,4.97
2017-11-07T04:26:55.474Z,4.94
2017-11-07T04:29:23.369Z,4.85
2017-11-07T04:31:51.685Z,4.83
2017-11-07T04:34:19.593Z,4.89
2017-11-07T04:36:47.501Z,4.76
2017-11-07T04:39:15.404Z,4.70
2017-11-07T04:41:43.439Z,4.64
2017-11-07T04:44:11.449Z,4.56
2017-11-07T04:46:39.354Z,4.48
2017-11-07T04:49:07.693Z,4.43
2017-11-07T04:51:35.699Z,4.36
2017-11-07T04:54:03.993Z,4.27
2017-11-07T04:56:31.908Z,4.29
2017-11-07T04:58:59.880Z,4.27
2017-11-07T05:01:27.802Z,4.24
2017-11-07T05:03:55.695Z,4.19
2017-11-07T05:06:23.680Z,4.28
2017-11-07T05:08:51.588Z,4.24
2017-11-07T05:11:19.890Z,4.16
2017-11-07T05:13:47.792Z,4.19
2017-11-07T05:16:15.768Z,3.95
2017-11-07T05:18:43.667Z,3.93
2017-11-07T05:21:12.008Z,3.90
2017-11-07T05:23:39.916Z,3.85
2017-11-07T05:26:08.244Z,3.84
2017-11-07T05:28:36.149Z,3.84
2017-11-07T05:31:04.444Z,3.86
2017-11-07T05:33:32.422Z,3.82
2017-11-07T05:36:00.335Z,3.77
2017-11-07T05:38:28.231Z,3.74
2017-11-07T05:40:56.545Z,3.73
2017-11-07T05:43:24.451Z,3.71
2017-11-07T05:45:52.360Z,3.53
2017-11-07T05:48:20.288Z,3.56
2017-11-07T05:50:48.252Z,3.51
2017-11-07T05:53:17.034Z,3.46
2017-11-07T05:55:45.012Z,3.48
2017-11-07T05:58:12.928Z,3.48
2017-11-07T06:00:40.820Z,3.44
2017-11-07T06:03:08.735Z,3.50
2017-11-07T06:05:37.055Z,3.50
2017-11-07T06:08:04.984Z,3.53
2017-11-07T06:10:32.884Z,3.57
2017-11-07T06:13:00.784Z,3.53
2017-11-07T06:15:28.695Z,3.54
2017-11-07T06:17:57.033Z,3.59
2017-11-07T06:20:25.017Z,3.54
2017-11-07T06:22:52.924Z,3.56
2017-11-07T06:25:20.845Z,3.56
2017-11-07T06:27:48.748Z,3.71
2017-11-07T06:30:17.068Z,3.71
2017-11-07T06:32:44.973Z,3.77
2017-11-07T06:35:12.923Z,3.78
2017-11-07T06:37:40.825Z,3.74
2017-11-07T06:40:09.132Z,3.84
2017-11-07T06:42:37.034Z,3.88
2017-11-07T06:45:04.961Z,3.97
2017-11-07T06:47:33.181Z,4.11
2017-11-07T06:50:01.103Z,4.38
2017-11-07T06:52:29.009Z,5.02
2017-11-07T06:54:57.005Z,5.84
2017-11-07T06:57:24.961Z,6.57
2017-11-07T06:59:52.924Z,7.19
2017-11-07T07:02:20.847Z,7.92
2017-11-07T07:04:48.748Z,8.76
2017-11-07T07:07:16.839Z,9.75
2017-11-07T07:09:44.809Z,10.33
2017-11-07T07:12:12.738Z,10.92
2017-11-07T07:14:40.664Z,11.60
2017-11-07T07:17:08.973Z,12.05
2017-11-07T07:19:36.942Z,12.67
2017-11-07T07:22:04.892Z,13.57
2017-11-07T07:24:32.841Z,14.36
2017-11-07T07:27:01.164Z,14.66
2017-11-07T07:29:29.130Z,14.52
2017-11-07T07:31:57.065Z,14.68
2017-11-07T07:34:25.380Z,14.39
2017-11-07T07:36:53.309Z,13.19
2017-11-07T07:39:21.620Z,12.80
2017-11-07T07:41:49.552Z,12.76
2017-11-07T07:44:17.844Z,13.62
2017-11-07T07:46:45.788Z,13.34
2017-11-07T07:49:13.710Z,14.27
2017-11-07T07:51:41.636Z,13.33
2017-11-07T07:54:09.955Z,13.84
2017-11-07T07:56:37.883Z,14.19
2017-11-07T07:59:05.824Z,14.86
2017-11-07T08:01:33.736Z,15.61
2017-11-07T08:04:01.648Z,16.01
2017-11-07T08:06:29.560Z,15.63
2017-11-07T08:08:57.880Z,16.21
2017-11-07T08:11:25.801Z,16.33
2017-11-07T08:13:54.124Z,15.53
2017-11-07T08:16:22.044Z,15.25
2017-11-07T08:18:50.385Z,15.18
2017-11-07T08:21:18.316Z,15.06
2017-11-07T08:23:46.210Z,15.62
2017-11-07T08:26:14.162Z,15.61
2017-11-07T08:28:42.135Z,15.48
2017-11-07T08:31:10.060Z,15.44
2017-11-07T08:33:38.407Z,14.61
2017-11-07T08:36:06.324Z,15.11
2017-11-07T08:38:34.261Z,16.51
2017-11-07T08:41:02.278Z,15.65
2017-11-07T08:43:30.300Z,15.24
2017-11-07T08:45:58.218Z,15.52
2017-11-07T08:48:26.282Z,16.23
2017-11-07T08:50:54.205Z,15.44
2017-11-07T08:53:22.125Z,15.30
2017-11-07T08:55:50.131Z,14.61
2017-11-07T08:58:18.044Z,14.66
2017-11-07T09:00:45.957Z,15.25
2017-11-07T09:03:13.868Z,15.28
2017-11-07T09:05:42.219Z,15.62
2017-11-07T09:08:10.186Z,15.15
2017-11-07T09:10:38.101Z,15.59
2017-11-07T09:13:06.025Z,15.10
2017-11-07T09:15:33.957Z,14.25
2017-11-07T09:18:01.880Z,14.66
2017-11-07T09:20:30.185Z,14.49
2017-11-07T09:22:58.118Z,14.85
2017-11-07T09:25:26.040Z,14.92
2017-11-07T09:27:53.949Z,14.96
2017-11-07T09:30:21.873Z,15.04
2017-11-07T09:32:49.784Z,14.27
2017-11-07T09:35:17.692Z,14.32
2017-11-07T09:37:45.709Z,14.69
2017-11-07T09:40:13.607Z,15.62
2017-11-07T09:42:41.529Z,15.44
2017-11-07T09:45:09.439Z,14.98
2017-11-07T09:47:37.740Z,14.75
2017-11-07T09:50:05.687Z,14.54
2017-11-07T09:52:34.042Z,14.55
2017-11-07T09:55:01.964Z,13.89
2017-11-07T09:57:30.760Z,13.35
2017-11-07T09:59:58.664Z,13.83
2017-11-07T10:02:26.640Z,13.70
2017-11-07T10:04:54.594Z,13.73
2017-11-07T10:07:22.504Z,13.39
2017-11-07T10:09:50.803Z,13.28
2017-11-07T10:12:19.177Z,12.48
2017-11-07T10:14:47.393Z,12.66
2017-11-07T10:17:15.627Z,13.07
2017-11-07T10:19:44.518Z,13.36
2017-11-07T10:22:12.694Z,13.36
2017-11-07T10:24:41.012Z,12.74
2017-11-07T10:27:09.245Z,12.66
2017-11-07T10:29:37.448Z,12.42
2017-11-07T10:32:05.698Z,11.67
2017-11-07T10:34:34.996Z,11.64
2017-11-07T10:37:03.017Z,11.76
2017-11-07T10:39:30.999Z,11.69
2017-11-07T10:41:59.386Z,11.98
2017-11-07T10:44:27.742Z,11.99
2017-11-07T10:46:56.072Z,12.02
2017-11-07T10:49:24.100Z,11.48
2017-11-07T10:51:52.730Z,11.49
2017-11-07T10:54:20.795Z,11.19
2017-11-07T10:56:48.824Z,11.50
2017-11-07T10:59:16.779Z,11.61
2017-11-07T11:01:44.908Z,10.99
2017-11-07T11:04:13.082Z,10.80
2017-11-07T11:06:41.304Z,10.69
2017-11-07T11:09:09.584Z,10.44
2017-11-07T11:11:38.562Z,10.32
2017-11-07T11:14:07.514Z,10.20
2017-11-07T11:16:35.733Z,9.93
2017-11-07T11:19:03.885Z,9.85
2017-11-07T11:21:32.203Z,9.65
2017-11-07T11:24:00.602Z,9.70
2017-11-07T11:26:28.907Z,9.69
2017-11-07T11:28:57.052Z,9.55
2017-11-07T11:31:25.298Z,9.42
2017-11-07T11:33:54.004Z,9.45
2017-11-07T11:36:22.212Z,9.38
2017-11-07T11:38:50.422Z,9.27
2017-11-07T11:41:18.660Z,9.28
2017-11-07T11:43:46.764Z,9.36
2017-11-07T11:46:14.901Z,9.46
2017-11-07T11:48:43.740Z,9.50
2017-11-07T11:51:11.864Z,9.53
2017-11-07T11:53:40.038Z,9.55
2017-11-07T11:56:07.976Z,9.53
2017-11-07T11:58:35.900Z,9.65
2017-11-07T12:01:03.814Z,9.70
2017-11-07T12:03:32.104Z,9.79
2017-11-07T12:06:00.020Z,9.83
2017-11-07T12:08:27.924Z,10.01
2017-11-07T12:10:56.229Z,9.91
2017-11-07T12:13:24.140Z,9.88
2017-11-07T12:15:52.067Z,9.81
2017-11-07T12:18:19.965Z,9.91
2017-11-07T12:20:47.891Z,10.03
2017-11-07T12:23:15.797Z,10.05
2017-11-07T12:25:43.711Z,9.99
2017-11-07T12:28:12.004Z,9.79
2017-11-07T12:30:39.916Z,9.89
2017-11-07T12:33:07.867Z,9.72
2017-11-07T12:35:35.786Z,9.66
2017-11-07T12:38:04.095Z,9.73
2017-11-07T12:40:32.033Z,9.67
2017-11-07T12:43:00.346Z,9.67
2017-11-07T12:45:28.257Z,9.68
2017-11-07T12:47:56.188Z,9.73
2017-11-07T12:50:35.892Z,9.69
2017-11-07T12:53:04.197Z,9.92
2017-11-07T12:55:32.100Z,9.98
2017-11-07T12:58:00.014Z,9.99
2017-11-07T13:00:28.392Z,10.11
2017-11-07T13:02:56.688Z,9.95
2017-11-07T13:05:24.601Z,9.75
2017-11-07T13:07:52.513Z,9.89
2017-11-07T13:10:20.418Z,9.95
2017-11-07T13:12:48.348Z,9.81
2017-11-07T13:15:16.268Z,9.50
2017-11-07T13:17:44.181Z,9.57
2017-11-07T13:20:12.490Z,9.60
2017-11-07T13:22:40.388Z,9.64
2017-11-07T13:25:08.301Z,9.66
2017-11-07T13:27:36.220Z,9.52
2017-11-07T13:30:04.141Z,9.32
2017-11-07T13:32:32.057Z,9.30
2017-11-07T13:34:59.968Z,9.40
2017-11-07T13:37:27.869Z,9.47
2017-11-07T13:39:55.783Z,9.31
2017-11-07T13:42:23.679Z,9.33
2017-11-07T13:44:51.571Z,9.21
2017-11-07T13:47:19.492Z,9.26
2017-11-07T13:49:47.797Z,9.36
2017-11-07T13:52:15.697Z,9.23
2017-11-07T13:54:43.601Z,9.18
2017-11-07T13:57:12.066Z,9.13
2017-11-07T13:59:40.024Z,9.25
2017-11-07T14:02:07.996Z,9.25
2017-11-07T14:04:36.316Z,9.32
2017-11-07T14:07:04.253Z,9.32
2017-11-07T14:09:32.201Z,9.49
2017-11-07T14:12:00.182Z,9.27
2017-11-07T14:14:28.156Z,9.18
2017-11-07T14:16:56.123Z,9.10
2017-11-07T14:19:24.030Z,9.07
2017-11-07T14:21:51.960Z,9.01
2017-11-07T14:24:19.868Z,9.01
2017-11-07T14:26:47.792Z,9.07
2017-11-07T14:29:15.712Z,9.04
2017-11-07T14:31:43.643Z,9.25
2017-11-07T14:34:12.013Z,9.24
2017-11-07T14:36:39.937Z,9.06
2017-11-07T14:39:07.838Z,9.05
2017-11-07T14:41:35.832Z,9.08
2017-11-07T14:44:04.188Z,9.00
2017-11-07T14:46:32.527Z,8.98
2017-11-07T14:49:00.420Z,8.97
2017-11-07T14:51:28.503Z,8.78
2017-11-07T14:53:56.467Z,8.76
2017-11-07T14:56:24.407Z,8.86
2017-11-07T14:58:52.304Z,8.94
2017-11-07T15:01:20.227Z,8.82
2017-11-07T15:03:48.135Z,8.78
2017-11-07T15:06:16.055Z,8.70
2017-11-07T15:08:44.141Z,8.76
2017-11-07T15:11:12.053Z,8.65
2017-11-07T15:13:39.996Z,8.70
2017-11-07T15:16:07.905Z,8.67
2017-11-07T15:18:36.195Z,8.69
2017-11-07T15:21:04.491Z,8.71
2017-11-07T15:23:32.396Z,8.73
2017-11-07T15:26:00.379Z,8.68
2017-11-07T15:28:28.280Z,8.71
2017-11-07T15:30:56.179Z,8.66
2017-11-07T15:33:24.077Z,8.67
2017-11-07T15:35:52.063Z,8.67
2017-11-07T15:38:19.950Z,8.74
2017-11-07T15:40:47.892Z,8.80
2017-11-07T15:43:15.796Z,8.65
2017-11-07T15:45:43.702Z,8.71
2017-11-07T15:48:11.598Z,8.64
2017-11-07T15:50:39.955Z,8.74
2017-11-07T15:53:07.855Z,8.71
2017-11-07T15:55:36.213Z,8.61
2017-11-07T15:58:04.150Z,8.63
2017-11-07T16:00:32.149Z,8.68
2017-11-07T16:03:00.051Z,8.64
2017-11-07T16:05:28.956Z,8.71
2017-11-07T16:07:56.862Z,8.59
2017-11-07T16:10:24.803Z,8.64
2017-11-07T16:12:52.865Z,8.61
2017-11-07T16:15:20.775Z,8.61
2017-11-07T16:17:48.667Z,8.62
2017-11-07T16:20:17.012Z,8.71
2017-11-07T16:22:44.917Z,8.63
2017-11-07T16:25:12.911Z,8.63
2017-11-07T16:27:40.839Z,8.67
2017-11-07T16:30:08.788Z,8.64
2017-11-07T16:32:36.719Z,8.60
2017-11-07T16:35:04.622Z,8.58
2017-11-07T16:37:32.559Z,8.56
2017-11-07T16:40:00.468Z,8.64
2017-11-07T16:42:28.494Z,8.60
2017-11-07T16:44:56.400Z,8.63
2017-11-07T16:47:24.317Z,8.62
2017-11-07T16:49:52.219Z,8.63
2017-11-07T16:52:20.135Z,8.61
2017-11-07T16:54:48.436Z,8.62
2017-11-07T16:57:16.336Z,8.68
2017-11-07T16:59:44.247Z,8.66
2017-11-07T17:02:12.557Z,8.63
2017-11-07T17:04:40.451Z,8.55
2017-11-07T17:07:08.582Z,8.48
2017-11-07T17:09:36.797Z,8.49
2017-11-07T17:12:05.057Z,8.61
2017-11-07T17:14:33.425Z,8.53
2017-11-07T17:17:02.213Z,8.48
2017-11-07T17:19:32.299Z,8.48
2017-11-07T17:22:01.126Z,8.52
2017-11-07T17:24:29.421Z,8.48
2017-11-07T17:26:57.573Z,8.52
2017-11-07T17:29:25.951Z,8.50
2017-11-07T17:31:54.157Z,8.56
2017-11-07T17:34:22.405Z,8.57
2017-11-07T17:36:50.425Z,8.60
2017-11-07T17:39:18.964Z,8.64
2017-11-07T17:41:47.435Z,8.66
2017-11-07T17:44:15.654Z,8.52
2017-11-07T17:46:43.918Z,8.51
2017-11-07T17:49:12.161Z,8.56
2017-11-07T17:51:40.438Z,8.46
2017-11-07T17:54:08.770Z,8.44
2017-11-07T17:56:38.330Z,8.39
2017-11-07T17:59:06.494Z,8.50
2017-11-07T18:01:34.672Z,8.59
2017-11-07T18:04:02.907Z,8.50
2017-11-07T18:06:31.098Z,8.36
2017-11-07T18:08:59.289Z,8.40
2017-11-07T18:11:27.314Z,8.28
2017-11-07T18:13:55.641Z,8.38
2017-11-07T18:16:23.653Z,8.43
2017-11-07T18:18:51.556Z,8.46
2017-11-07T18:21:19.901Z,8.50
2017-11-07T18:23:47.881Z,8.46
2017-11-07T18:26:15.797Z,8.39
2017-11-07T18:28:43.812Z,8.44
2017-11-07T18:31:11.731Z,8.36
2017-11-07T18:33:39.643Z,8.35
2017-11-07T18:36:07.568Z,8.30
2017-11-07T18:38:35.533Z,8.42
2017-11-07T18:41:03.444Z,8.41
2017-11-07T18:43:31.420Z,8.39
2017-11-07T18:45:59.323Z,8.37
2017-11-07T18:48:27.249Z,8.37
2017-11-07T18:50:55.165Z,8.35
2017-11-07T18:53:23.069Z,8.33
2017-11-07T18:55:50.979Z,8.42
2017-11-07T18:58:19.272Z,8.40
2017-11-07T19:00:47.200Z,8.40
2017-11-07T19:03:15.095Z,8.39
2017-11-07T19:05:43.094Z,8.30
2017-11-07T19:08:11.011Z,8.36
2017-11-07T19:10:38.922Z,8.38
2017-11-07T19:13:06.828Z,8.42
2017-11-07T19:15:34.732Z,8.38
2017-11-07T19:18:03.040Z,8.36
2017-11-07T19:20:31.016Z,8.37
2017-11-07T19:22:58.915Z,8.52
2017-11-07T19:25:26.812Z,8.52
2017-11-07T19:27:55.108Z,8.40
2017-11-07T19:30:23.048Z,8.43
2017-11-07T19:32:50.953Z,8.40
2017-11-07T19:35:18.888Z,8.45
2017-11-07T19:37:47.257Z,8.44
2017-11-07T19:40:15.158Z,8.43
2017-11-07T19:42:43.080Z,8.56
2017-11-07T19:45:10.996Z,8.40
2017-11-07T19:47:38.936Z,8.38
2017-11-07T19:50:07.264Z,8.44
2017-11-07T19:52:35.174Z,8.36
2017-11-07T19:55:03.063Z,8.37
2017-11-07T19:57:31.365Z,8.42
2017-11-07T19:59:59.289Z,8.43
2017-11-07T20:02:27.314Z,8.45
2017-11-07T20:04:55.330Z,8.45
2017-11-07T20:07:23.244Z,8.37
2017-11-07T20:09:51.136Z,8.34
2017-11-07T20:12:19.112Z,8.37
2017-11-07T20:14:47.021Z,8.41
2017-11-07T20:17:15.330Z,8.46
2017-11-07T20:19:43.238Z,8.47
2017-11-07T20:22:11.150Z,8.58
2017-11-07T20:24:39.048Z,8.68
2017-11-07T20:27:07.035Z,8.59
2017-11-07T20:29:34.950Z,8.58
2017-11-07T20:32:02.978Z,8.63
2017-11-07T20:34:30.883Z,8.55
2017-11-07T20:36:58.792Z,8.55
2017-11-07T20:39:26.772Z,8.43
2017-11-07T20:41:54.757Z,8.45
2017-11-07T20:44:22.686Z,8.53
2017-11-07T20:46:50.596Z,8.47
2017-11-07T20:49:18.507Z,8.41
2017-11-07T20:51:46.412Z,8.48
2017-11-07T20:54:14.344Z,8.53
2017-11-07T20:56:42.247Z,8.45
2017-11-07T20:59:10.150Z,8.45
2017-11-07T21:01:38.464Z,8.50
2017-11-07T21:04:06.380Z,8.63
2017-11-07T21:06:34.311Z,8.57
2017-11-07T21:09:02.241Z,8.59
2017-11-07T21:11:30.554Z,8.57
2017-11-07T21:13:58.482Z,8.54
2017-11-07T21:16:26.877Z,8.53
2017-11-07T21:18:54.778Z,8.51
2017-11-07T21:21:25.527Z,8.57
2017-11-07T21:23:53.437Z,8.61
2017-11-07T21:26:21.360Z,8.59
2017-11-07T21:28:49.435Z,8.58
2017-11-07T21:31:17.345Z,8.62
2017-11-07T21:33:45.239Z,8.57
2017-11-07T21:36:13.177Z,8.64
2017-11-07T21:38:41.491Z,8.63
2017-11-07T21:41:09.488Z,8.63
2017-11-07T21:43:37.448Z,8.55
2017-11-07T21:46:05.361Z,8.59
2017-11-07T21:48:33.713Z,8.55
2017-11-07T21:51:01.640Z,8.51
2017-11-07T21:53:29.641Z,8.53
2017-11-07T21:55:57.615Z,8.59
2017-11-07T21:58:25.520Z,8.58
2017-11-07T22:00:53.428Z,8.68
2017-11-07T22:03:21.328Z,8.68
2017-11-07T22:05:49.255Z,8.62
2017-11-07T22:08:17.163Z,8.59
2017-11-07T22:10:45.715Z,8.67
2017-11-07T22:13:13.624Z,8.62
2017-11-07T22:15:41.957Z,8.61
2017-11-07T22:18:10.754Z,8.70
2017-11-07T22:20:39.585Z,8.64
2017-11-07T22:23:13.481Z,8.68
2017-11-07T22:25:43.592Z,8.75
2017-11-07T22:28:11.494Z,8.72
2017-11-07T22:30:39.401Z,8.66
2017-11-07T22:33:07.300Z,8.61
2017-11-07T22:35:35.612Z,8.60
2017-11-07T22:38:03.518Z,8.71
2017-11-07T22:40:31.488Z,8.70
2017-11-07T22:42:59.420Z,8.72
2017-11-07T22:45:27.386Z,8.76
2017-11-07T22:47:55.300Z,8.63
2017-11-07T22:50:23.208Z,8.66
2017-11-07T22:52:51.140Z,8.64
2017-11-07T22:55:19.038Z,8.59
2017-11-07T22:57:47.391Z,8.61
2017-11-07T23:00:15.301Z,8.56
2017-11-07T23:02:43.217Z,8.51
2017-11-07T23:05:11.155Z,8.58
2017-11-07T23:07:39.063Z,8.56
2017-11-07T23:10:06.981Z,8.63
2017-11-07T23:12:34.892Z,8.55
2017-11-07T23:15:02.795Z,8.52
2017-11-07T23:17:30.710Z,8.55
2017-11-07T23:19:58.617Z,8.54
2017-11-07T23:22:26.977Z,8.49
2017-11-07T23:24:54.945Z,8.44
2017-11-07T23:27:22.852Z,8.36
2017-11-07T23:29:50.772Z,8.36
2017-11-07T23:32:18.676Z,8.31
2017-11-07T23:34:47.007Z,8.26
2017-11-07T23:37:14.895Z,8.21
2017-11-07T23:39:42.854Z,8.23
2017-11-07T23:42:10.748Z,8.22
2017-11-07T23:44:39.082Z,8.17
2017-11-07T23:47:06.989Z,8.21
2017-11-07T23:49:35.291Z,8.14
2017-11-07T23:52:03.193Z,8.18
2017-11-07T23:54:31.112Z,8.19
2017-11-07T23:56:59.401Z,8.17
2017-11-07T23:59:27.304Z,8.21
